createdAt,value
2022-09-04T00:01:47.700Z,101549.44
2022-09-04T00:04:53.248Z,101554.63
2022-09-04T00:07:54.211Z,101541.81
2022-09-04T00:10:51.264Z,101545.84
2022-09-04T00:13:35.672Z,101544.19
2022-09-04T00:16:22.220Z,101545.84
2022-09-04T00:19:04.051Z,101541.50
2022-09-04T00:21:34.640Z,101543.34
2022-09-04T00:24:20.751Z,101543.50
2022-09-04T00:27:05.687Z,101550.56
2022-09-04T00:29:54.079Z,101549.75
2022-09-04T00:32:29.769Z,101548.06
2022-09-04T00:35:07.462Z,101548.91
2022-09-04T00:37:51.737Z,101535.06
2022-09-04T00:40:30.293Z,101549.91
2022-09-04T00:43:24.755Z,101554.31
2022-09-04T00:45:57.179Z,101552.44
2022-09-04T00:48:37.338Z,101549.91
2022-09-04T00:51:25.577Z,101550.94
2022-09-04T00:54:10.611Z,101550.94
2022-09-04T00:56:40.095Z,101545.53
2022-09-04T00:59:33.599Z,101543.81
2022-09-04T01:02:16.993Z,101541.13
2022-09-04T01:04:58.880Z,101541.13
2022-09-04T01:07:48.176Z,101535.72
2022-09-04T01:10:36.831Z,101542.16
2022-09-04T01:13:12.848Z,101536.75
2022-09-04T01:15:45.920Z,101542.16
2022-09-04T01:18:30.771Z,101545.88
2022-09-04T01:21:13.855Z,101542.66
2022-09-04T01:23:50.291Z,101530.34
2022-09-04T01:26:28.477Z,101542.50
2022-09-04T01:29:28.335Z,101538.78
2022-09-04T01:32:23.379Z,101541.13
2022-09-04T01:35:14.686Z,101545.34
2022-09-04T01:37:59.153Z,101499.88
2022-09-04T01:40:38.785Z,101552.59
2022-09-04T01:43:13.255Z,101560.69
2022-09-04T01:46:16.651Z,101546.53
2022-09-04T01:48:49.599Z,101557.47
2022-09-04T01:51:24.740Z,101552.22
2022-09-04T01:54:20.716Z,101548.53
2022-09-04T01:57:14.255Z,101553.09
2022-09-04T01:59:53.815Z,101481.28
2022-09-04T02:02:36.892Z,101548.50
2022-09-04T02:05:18.866Z,101556.78
2022-09-04T02:08:03.340Z,101561.34
2022-09-04T02:10:48.263Z,101562.34
2022-09-04T02:13:45.028Z,101559.66
2022-09-04T02:16:15.290Z,101559.81
2022-09-04T02:18:58.676Z,101557.28
2022-09-04T02:21:35.687Z,101554.06
2022-09-04T02:24:10.493Z,101563.72
2022-09-04T02:26:51.147Z,101553.22
2022-09-04T02:29:23.470Z,101563.72
2022-09-04T02:32:37.868Z,101566.41
2022-09-04T02:35:52.554Z,101567.41
2022-09-04T02:38:29.642Z,101564.69
2022-09-04T02:41:07.559Z,101566.72
2022-09-04T02:43:42.255Z,101569.41
2022-09-04T02:46:38.147Z,101572.94
2022-09-04T02:49:41.555Z,101573.97
2022-09-04T02:52:33.378Z,101560.56
2022-09-04T02:55:11.195Z,101575.81
2022-09-04T02:58:07.794Z,101574.97
2022-09-04T03:00:47.821Z,101571.44
2022-09-04T03:03:24.078Z,101575.16
2022-09-04T03:05:50.455Z,101576.97
2022-09-04T03:08:23.682Z,101575.16
2022-09-04T03:11:00.222Z,101584.06
2022-09-04T03:13:37.275Z,101584.22
2022-09-04T03:16:21.295Z,101578.84
2022-09-04T03:19:16.618Z,101584.22
2022-09-04T03:21:53.129Z,101586.09
2022-09-04T03:24:38.034Z,101590.66
2022-09-04T03:27:08.284Z,101587.09
2022-09-04T03:29:51.186Z,101594.34
2022-09-04T03:32:28.110Z,101582.00
2022-09-04T03:35:17.909Z,101600.75
2022-09-04T03:37:56.592Z,101593.63
2022-09-04T03:40:31.970Z,101594.63
2022-09-04T03:43:16.121Z,101588.41
2022-09-04T03:45:42.505Z,101601.72
2022-09-04T03:48:23.875Z,101599.19
2022-09-04T03:51:02.420Z,101585.88
2022-09-04T03:53:42.461Z,101588.56
2022-09-04T03:56:37.365Z,101586.69
2022-09-04T03:59:08.234Z,101590.41
2022-09-04T04:01:56.566Z,101581.47
2022-09-04T04:05:00.364Z,101584.34
2022-09-04T04:07:58.064Z,101585.19
2022-09-04T04:10:33.780Z,101587.03
2022-09-04T04:13:19.339Z,101576.06
2022-09-04T04:15:52.274Z,101592.59
2022-09-04T04:18:31.560Z,101586.34
2022-09-04T04:21:27.518Z,101596.31
2022-09-04T04:24:29.924Z,101587.34
2022-09-04T04:27:09.191Z,101595.44
2022-09-04T04:30:10.436Z,101592.91
2022-09-04T04:33:10.700Z,101590.22
2022-09-04T04:35:50.135Z,101595.78
2022-09-04T04:38:50.438Z,101603.88
2022-09-04T04:41:30.782Z,101600.63
2022-09-04T04:44:14.738Z,101607.53
2022-09-04T04:47:15.644Z,101605.72
2022-09-04T04:49:45.560Z,101567.69
2022-09-04T04:52:24.047Z,101595.09
2022-09-04T04:54:52.982Z,101604.00
2022-09-04T04:57:40.754Z,101598.81
2022-09-04T05:00:22.805Z,101594.25
2022-09-04T05:03:19.724Z,101600.63
2022-09-04T05:06:06.995Z,101606.91
2022-09-04T05:08:38.982Z,101606.03
2022-09-04T05:11:35.749Z,101607.03
2022-09-04T05:14:33.425Z,101606.22
2022-09-04T05:17:14.195Z,101594.53
2022-09-04T05:19:50.304Z,101610.72
2022-09-04T05:22:34.055Z,101616.13
2022-09-04T05:25:07.587Z,101615.28
2022-09-04T05:28:01.851Z,101522.75
2022-09-04T05:30:56.689Z,101628.78
2022-09-04T05:33:35.124Z,101630.63
2022-09-04T05:36:13.687Z,101634.31
2022-09-04T05:39:07.891Z,101637.00
2022-09-04T05:42:06.571Z,101649.66
2022-09-04T05:44:51.411Z,101651.34
2022-09-04T05:47:30.563Z,101650.66
2022-09-04T05:50:44.676Z,101648.81
2022-09-04T05:53:20.413Z,101661.47
2022-09-04T05:56:05.262Z,101625.94
2022-09-04T05:58:49.218Z,101657.06
2022-09-04T06:01:41.299Z,101648.06
2022-09-04T06:04:19.812Z,101665.16
2022-09-04T06:07:08.733Z,101658.91
2022-09-04T06:09:44.738Z,101628.78
2022-09-04T06:12:37.602Z,101661.59
2022-09-04T06:15:17.299Z,101645.69
2022-09-04T06:18:07.071Z,101665.31
2022-09-04T06:20:42.615Z,101668.72
2022-09-04T06:23:24.386Z,101666.00
2022-09-04T06:26:21.894Z,101671.41
2022-09-04T06:29:05.296Z,101667.69
2022-09-04T06:31:52.063Z,101680.16
2022-09-04T06:34:36.516Z,101677.63
2022-09-04T06:37:10.167Z,101684.88
2022-09-04T06:39:48.667Z,101687.88
2022-09-04T06:42:39.715Z,101689.59
2022-09-04T06:45:37.894Z,101680.47
2022-09-04T06:48:41.348Z,101693.97
2022-09-04T06:51:32.503Z,101687.31
2022-09-04T06:54:32.248Z,101700.09
2022-09-04T06:57:13.614Z,101699.56
2022-09-04T07:00:02.517Z,101704.09
2022-09-04T07:03:00.173Z,101711.81
2022-09-04T07:05:34.160Z,101689.75
2022-09-04T07:08:32.831Z,101712.59
2022-09-04T07:11:14.669Z,101717.97
2022-09-04T07:14:20.182Z,101721.69
2022-09-04T07:17:03.698Z,101725.09
2022-09-04T07:19:53.022Z,101719.69
2022-09-04T07:22:47.669Z,101724.75
2022-09-04T07:25:32.913Z,101728.16
2022-09-04T07:28:11.371Z,101734.06
2022-09-04T07:31:03.575Z,101713.91
2022-09-04T07:33:45.592Z,101730.00
2022-09-04T07:36:18.776Z,101726.44
2022-09-04T07:39:14.415Z,101730.50
2022-09-04T07:41:56.734Z,101718.34
2022-09-04T07:45:01.367Z,101715.66
2022-09-04T07:47:42.323Z,101731.75
2022-09-04T07:50:22.194Z,101734.31
2022-09-04T07:53:14.668Z,101741.38
2022-09-04T07:55:56.463Z,101734.13
2022-09-04T07:58:59.185Z,101748.16
2022-09-04T08:01:59.913Z,101739.91
2022-09-04T08:04:48.744Z,101726.03
2022-09-04T08:07:41.971Z,101745.13
2022-09-04T08:10:27.237Z,101751.06
2022-09-04T08:13:12.235Z,101751.91
2022-09-04T08:15:54.319Z,101715.59
2022-09-04T08:19:01.367Z,101755.28
2022-09-04T08:21:31.890Z,101766.75
2022-09-04T08:24:10.664Z,101761.38
2022-09-04T08:26:53.556Z,101763.22
2022-09-04T08:29:40.145Z,101762.91
2022-09-04T08:32:25.261Z,101761.91
2022-09-04T08:35:12.470Z,101776.09
2022-09-04T08:38:20.899Z,101768.84
2022-09-04T08:41:39.013Z,101777.63
2022-09-04T08:44:23.982Z,101774.75
2022-09-04T08:47:10.343Z,101769.34
2022-09-04T08:49:45.556Z,101777.28
2022-09-04T08:52:26.090Z,101780.00
2022-09-04T08:55:05.726Z,101778.81
2022-09-04T08:58:17.969Z,101776.13
2022-09-04T09:00:50.979Z,101767.06
2022-09-04T09:03:50.941Z,101774.13
2022-09-04T09:07:06.903Z,101773.13
2022-09-04T09:09:56.322Z,101764.97
2022-09-04T09:13:06.116Z,101781.91
2022-09-04T09:15:51.195Z,101793.53
2022-09-04T09:18:37.341Z,101787.31
2022-09-04T09:21:41.887Z,101779.00
2022-09-04T09:24:30.412Z,101783.59
2022-09-04T09:27:33.683Z,101795.22
2022-09-04T09:30:36.830Z,101794.25
2022-09-04T09:33:51.183Z,101798.63
2022-09-04T09:37:02.623Z,101787.81
2022-09-04T09:40:05.864Z,101759.22
2022-09-04T09:42:54.957Z,101798.34
2022-09-04T09:45:35.698Z,101794.63
2022-09-04T09:48:40.368Z,101788.25
2022-09-04T09:51:31.198Z,101795.31
2022-09-04T09:54:15.803Z,101789.78
2022-09-04T09:57:16.152Z,101789.78
2022-09-04T10:00:06.011Z,101787.78
2022-09-04T10:02:37.766Z,101781.34
2022-09-04T10:05:39.832Z,101786.59
2022-09-04T10:08:35.576Z,101785.91
2022-09-04T10:11:33.523Z,101793.38
2022-09-04T10:14:25.280Z,101778.88
2022-09-04T10:17:19.540Z,101791.38
2022-09-04T10:20:15.746Z,101778.72
2022-09-04T10:23:20.771Z,101792.06
2022-09-04T10:25:59.330Z,101784.66
2022-09-04T10:29:11.858Z,101775.69
2022-09-04T10:32:14.836Z,101776.56
2022-09-04T10:35:03.279Z,101772.84
2022-09-04T10:37:35.526Z,101780.94
2022-09-04T10:40:23.578Z,101780.78
2022-09-04T10:43:10.141Z,101773.53
2022-09-04T10:45:47.133Z,101776.06
2022-09-04T10:48:53.916Z,101777.75
2022-09-04T10:51:43.407Z,101773.03
2022-09-04T10:54:22.034Z,101769.34
2022-09-04T10:57:07.338Z,101778.13
2022-09-04T10:59:49.705Z,101772.56
2022-09-04T11:02:34.866Z,101778.63
2022-09-04T11:05:27.714Z,101776.78
2022-09-04T11:08:06.899Z,101770.25
2022-09-04T11:10:43.644Z,101776.31
2022-09-04T11:13:46.080Z,101776.16
2022-09-04T11:16:37.012Z,101777.84
2022-09-04T11:19:28.761Z,101778.53
2022-09-04T11:22:34.894Z,101787.31
2022-09-04T11:25:24.784Z,101788.84
2022-09-04T11:28:16.315Z,101788.84
2022-09-04T11:31:08.282Z,101781.59
2022-09-04T11:34:13.844Z,101776.03
2022-09-04T11:37:01.544Z,101786.66
2022-09-04T11:40:13.127Z,101780.25
2022-09-04T11:42:50.207Z,101779.09
2022-09-04T11:45:17.212Z,101782.47
2022-09-04T11:48:19.039Z,101780.66
2022-09-04T11:51:02.743Z,101773.53
2022-09-04T11:53:44.533Z,101769.69
2022-09-04T11:56:48.619Z,101781.53
2022-09-04T11:59:39.989Z,101784.91
2022-09-04T12:02:37.292Z,101779.34
2022-09-04T12:05:12.711Z,101780.88
2022-09-04T12:08:02.839Z,101781.56
2022-09-04T12:11:01.710Z,101774.97
2022-09-04T12:14:05.685Z,101770.25
2022-09-04T12:17:05.517Z,101771.28
2022-09-04T12:20:07.204Z,101776.19
2022-09-04T12:23:00.409Z,101769.78
2022-09-04T12:25:29.616Z,101770.44
2022-09-04T12:28:15.735Z,101775.69
2022-09-04T12:31:07.925Z,101771.97
2022-09-04T12:33:46.599Z,101769.97
2022-09-04T12:36:37.247Z,101779.78
2022-09-04T12:39:25.078Z,101776.19
2022-09-04T12:42:03.434Z,101780.75
2022-09-04T12:44:51.099Z,101771.13
2022-09-04T12:47:43.139Z,101786.50
2022-09-04T12:50:28.311Z,101782.28
2022-09-04T12:53:03.063Z,101771.63
2022-09-04T12:55:45.778Z,101779.06
2022-09-04T12:58:40.211Z,101785.28
2022-09-04T13:01:38.778Z,101773.66
2022-09-04T13:04:30.830Z,101781.91
2022-09-04T13:07:22.804Z,101765.69
2022-09-04T13:10:17.139Z,101786.28
2022-09-04T13:13:11.602Z,101781.22
2022-09-04T13:15:47.996Z,101781.53
2022-09-04T13:18:44.757Z,101785.25
2022-09-04T13:21:25.321Z,101782.84
2022-09-04T13:24:31.756Z,101708.03
2022-09-04T13:27:04.612Z,101795.66
2022-09-04T13:29:51.487Z,101796.84
2022-09-04T13:32:39.406Z,101798.81
2022-09-04T13:35:17.358Z,101791.91
2022-09-04T13:37:52.832Z,101804.72
2022-09-04T13:40:28.240Z,101798.63
2022-09-04T13:43:14.762Z,101796.25
2022-09-04T13:45:47.182Z,101796.53
2022-09-04T13:48:20.046Z,101799.25
2022-09-04T13:50:54.952Z,101807.69
2022-09-04T13:53:35.791Z,101783.00
2022-09-04T13:56:12.715Z,101799.06
2022-09-04T13:58:49.564Z,101780.78
2022-09-04T14:01:21.733Z,101801.06
2022-09-04T14:03:56.870Z,101793.09
2022-09-04T14:06:26.870Z,101788.72
2022-09-04T14:09:05.079Z,101801.03
2022-09-04T14:11:41.700Z,101802.72
2022-09-04T14:14:17.065Z,101793.78
2022-09-04T14:16:44.223Z,101799.66
2022-09-04T14:19:44.127Z,101798.50
2022-09-04T14:22:39.546Z,101798.66
2022-09-04T14:25:12.588Z,101805.22
2022-09-04T14:28:22.774Z,101806.25
2022-09-04T14:30:58.612Z,101798.28
2022-09-04T14:33:55.051Z,101814.63
2022-09-04T14:36:39.729Z,101816.63
2022-09-04T14:39:27.582Z,101812.41
2022-09-04T14:42:26.256Z,101806.19
2022-09-04T14:45:12.455Z,101804.47
2022-09-04T14:48:05.818Z,101816.44
2022-09-04T14:50:48.058Z,101818.28
2022-09-04T14:53:23.041Z,101820.97
2022-09-04T14:56:07.644Z,101822.69
2022-09-04T14:58:39.846Z,101806.25
2022-09-04T15:01:24.460Z,101819.53
2022-09-04T15:04:11.116Z,101811.25
2022-09-04T15:07:11.263Z,101816.63
2022-09-04T15:09:41.030Z,101812.94
2022-09-04T15:12:32.426Z,101809.41
2022-09-04T15:15:34.480Z,101810.25
2022-09-04T15:18:15.984Z,101817.31
2022-09-04T15:20:54.884Z,101815.47
2022-09-04T15:23:37.315Z,101806.31
2022-09-04T15:26:17.005Z,101819.19
2022-09-04T15:28:51.806Z,101817.81
2022-09-04T15:31:38.256Z,101828.31
2022-09-04T15:34:08.821Z,101826.75
2022-09-04T15:36:37.705Z,101833.16
2022-09-04T15:39:18.442Z,101824.22
2022-09-04T15:41:47.945Z,101829.75
2022-09-04T15:44:18.568Z,101830.94
2022-09-04T15:47:00.012Z,101826.38
2022-09-04T15:49:56.423Z,101834.94
2022-09-04T15:52:28.569Z,101831.72
2022-09-04T15:55:08.891Z,101842.09
2022-09-04T15:57:55.508Z,101831.09
2022-09-04T16:00:26.421Z,101826.69
2022-09-04T16:03:16.311Z,101832.53
2022-09-04T16:05:48.521Z,101840.81
2022-09-04T16:08:37.027Z,101828.56
2022-09-04T16:11:11.692Z,101834.50
2022-09-04T16:13:58.484Z,101840.88
2022-09-04T16:16:34.077Z,101835.50
2022-09-04T16:19:08.715Z,101846.88
2022-09-04T16:21:40.697Z,101839.81
2022-09-04T16:24:12.956Z,101842.78
2022-09-04T16:26:39.579Z,101841.59
2022-09-04T16:29:17.962Z,101850.41
2022-09-04T16:31:52.750Z,101846.88
2022-09-04T16:34:44.522Z,101847.03
2022-09-04T16:37:24.527Z,101844.19
2022-09-04T16:40:00.241Z,101848.03
2022-09-04T16:42:41.983Z,101848.50
2022-09-04T16:45:14.475Z,101842.53
2022-09-04T16:47:45.558Z,101852.19
2022-09-04T16:50:23.662Z,101845.53
2022-09-04T16:53:12.486Z,101844.84
2022-09-04T16:55:47.153Z,101839.44
2022-09-04T16:58:21.479Z,101845.75
2022-09-04T17:01:17.798Z,101844.50
2022-09-04T17:04:13.498Z,101852.91
2022-09-04T17:07:02.953Z,101846.41
2022-09-04T17:09:55.962Z,101855.03
2022-09-04T17:12:37.904Z,101855.88
2022-09-04T17:15:17.695Z,101860.28
2022-09-04T17:17:48.434Z,101859.44
2022-09-04T17:20:51.636Z,101856.03
2022-09-04T17:29:02.428Z,101864.81
2022-09-04T17:29:14.605Z,101863.97
2022-09-04T17:29:34.303Z,101863.97
2022-09-04T17:33:46.130Z,101859.44
2022-09-04T17:40:34.603Z,101865.81
2022-09-04T17:40:56.106Z,101861.56
2022-09-04T17:41:59.352Z,101868.19
2022-09-04T17:44:46.211Z,101876.13
2022-09-04T17:47:37.960Z,101876.84
2022-09-04T17:50:16.769Z,101861.25
2022-09-04T17:53:02.916Z,101872.97
2022-09-04T17:55:34.981Z,101869.31
2022-09-04T17:58:38.205Z,101872.69
2022-09-04T18:01:17.223Z,101884.19
2022-09-04T18:04:21.220Z,101886.00
2022-09-04T18:06:50.915Z,101876.69
2022-09-04T18:09:26.689Z,101887.16
2022-09-04T18:12:10.884Z,101897.22
2022-09-04T18:15:31.624Z,101892.16
2022-09-04T18:18:00.548Z,101895.00
2022-09-04T18:20:37.669Z,101890.38
2022-09-04T18:23:22.697Z,101902.81
2022-09-04T18:26:02.267Z,101906.53
2022-09-04T18:28:46.298Z,101911.22
2022-09-04T18:37:13.062Z,101898.63
2022-09-04T18:37:23.392Z,101922.25
2022-09-04T18:37:44.036Z,101922.97
2022-09-04T18:40:36.041Z,101922.69
2022-09-04T18:50:30.768Z,101925.38
2022-09-04T18:50:31.758Z,101931.72
2022-09-04T18:50:50.873Z,101922.38
2022-09-04T18:51:58.185Z,101932.56
2022-09-04T18:54:41.631Z,101945.59
2022-09-04T18:57:32.414Z,101949.81
2022-09-04T19:00:12.164Z,101946.16
2022-09-04T19:02:52.843Z,101954.06
2022-09-04T19:05:21.137Z,101947.69
2022-09-04T19:07:49.942Z,101952.06
2022-09-04T19:10:25.641Z,101955.47
2022-09-04T19:12:55.905Z,101957.19
2022-09-04T19:15:48.034Z,101961.56
2022-09-04T19:18:33.806Z,101956.03
2022-09-04T19:21:14.297Z,101956.03
2022-09-04T19:24:05.197Z,101956.88
2022-09-04T19:26:56.675Z,101959.41
2022-09-04T19:29:37.812Z,101951.94
2022-09-04T19:32:29.571Z,101959.00
2022-09-04T19:34:58.975Z,101961.09
2022-09-04T19:43:45.325Z,101960.25
2022-09-04T19:46:06.405Z,101966.50
2022-09-04T19:46:25.914Z,101961.94
2022-09-04T19:47:28.574Z,101976.28
2022-09-04T19:53:18.245Z,101979.84
2022-09-04T19:53:38.927Z,101979.84
2022-09-04T19:56:25.828Z,101966.38
2022-09-04T19:59:05.364Z,101975.88
2022-09-04T20:01:44.708Z,101987.81
2022-09-04T20:04:33.233Z,101974.88
2022-09-04T20:07:04.935Z,101989.63
2022-09-04T20:09:46.390Z,101985.25
2022-09-04T20:12:15.790Z,101992.19
2022-09-04T20:14:47.618Z,101987.81
2022-09-04T20:17:24.181Z,101988.66
2022-09-04T20:20:05.883Z,101988.66
2022-09-04T20:22:45.430Z,101988.66
2022-09-04T20:25:24.327Z,101986.09
2022-09-04T20:28:10.864Z,101986.78
2022-09-04T20:30:43.445Z,101990.31
2022-09-04T20:33:24.060Z,101990.19
2022-09-04T20:35:59.834Z,101988.91
2022-09-04T20:38:33.475Z,101992.03
2022-09-04T20:41:33.639Z,101998.28
2022-09-04T20:44:13.664Z,101995.56
2022-09-04T20:52:44.099Z,101989.22
2022-09-04T20:52:52.414Z,101990.88
2022-09-04T20:52:55.885Z,101998.97
2022-09-04T20:55:44.171Z,101993.59
2022-09-04T21:03:05.695Z,101992.75
2022-09-04T21:03:17.387Z,101998.13
2022-09-04T21:04:42.141Z,102007.91
2022-09-04T21:07:48.075Z,102001.66
2022-09-04T21:10:28.909Z,102007.06
2022-09-04T21:13:13.507Z,101963.44
2022-09-04T21:15:47.070Z,102008.06
2022-09-04T21:18:41.407Z,102001.81
2022-09-04T21:21:27.006Z,102006.22
2022-09-04T21:24:03.103Z,102004.38
2022-09-04T21:26:56.285Z,102002.69
2022-09-04T21:29:40.527Z,101989.06
2022-09-04T21:32:19.222Z,102003.53
2022-09-04T21:35:16.257Z,102002.69
2022-09-04T21:37:52.970Z,102010.78
2022-09-04T21:40:51.034Z,102007.66
2022-09-04T21:43:24.892Z,102013.47
2022-09-04T21:46:28.748Z,102016.16
2022-09-04T21:49:26.659Z,102021.56
2022-09-04T21:52:11.790Z,102020.69
2022-09-04T22:00:19.248Z,102019.00
2022-09-04T22:02:37.502Z,102017.97
2022-09-04T22:02:38.661Z,102017.13
2022-09-04T22:04:17.446Z,102018.16
2022-09-04T22:08:25.422Z,102028.94
2022-09-04T22:13:29.711Z,102028.94
2022-09-04T22:13:41.682Z,102028.06
2022-09-04T22:16:01.245Z,102027.22
2022-09-04T22:18:47.171Z,102020.56
2022-09-04T22:21:38.680Z,102015.31
2022-09-04T22:24:11.241Z,102030.94
2022-09-04T22:26:50.392Z,102032.75
2022-09-04T22:29:40.036Z,102036.31
2022-09-04T22:32:46.518Z,102043.38
2022-09-04T22:35:27.768Z,102028.22
2022-09-04T22:38:27.471Z,102027.22
2022-09-04T22:41:25.506Z,102029.06
2022-09-04T22:44:34.626Z,102030.06
2022-09-04T22:47:27.077Z,102027.34
2022-09-04T22:50:14.871Z,102030.06
2022-09-04T22:53:08.087Z,102024.66
2022-09-04T22:56:23.950Z,102022.84
2022-09-04T22:58:52.325Z,102022.97
2022-09-04T23:01:31.629Z,102035.44
2022-09-04T23:04:26.054Z,102026.50
2022-09-04T23:09:24.866Z,102029.22
2022-09-04T23:13:43.307Z,102029.22
2022-09-04T23:13:57.403Z,102034.59
2022-09-04T23:16:29.855Z,102040.00
2022-09-04T23:21:59.755Z,102032.88
2022-09-04T23:26:42.365Z,102035.59
2022-09-04T23:26:49.217Z,102041.84
2022-09-04T23:28:28.295Z,102040.00
2022-09-04T23:31:29.237Z,102039.25
2022-09-04T23:34:26.587Z,102032.31
2022-09-04T23:37:05.279Z,102033.16
2022-09-04T23:39:46.503Z,102025.25
2022-09-04T23:42:32.319Z,102024.38
2022-09-04T23:45:25.211Z,102030.63
2022-09-04T23:47:57.619Z,102034.19
2022-09-04T23:50:49.100Z,102037.84
2022-09-04T23:53:35.561Z,102033.16
2022-09-04T23:56:16.498Z,102027.06
2022-09-04T23:59:10.918Z,102026.09
